createdAt,value
2022-12-31T00:01:37.716Z,23.90
2022-12-31T00:04:04.158Z,31.00
2022-12-31T00:06:33.079Z,28.70
2022-12-31T00:09:02.385Z,34.90
2022-12-31T00:11:29.833Z,27.30
2022-12-31T00:13:57.547Z,22.20
2022-12-31T00:16:27.014Z,24.20
2022-12-31T00:18:55.905Z,34.00
2022-12-31T00:21:22.350Z,37.90
2022-12-31T00:23:48.703Z,38.30
2022-12-31T00:26:18.526Z,22.30
2022-12-31T00:31:14.568Z,34.90
2022-12-31T00:33:41.710Z,30.00
2022-12-31T00:36:11.718Z,35.60
2022-12-31T00:38:39.683Z,33.70
2022-12-31T00:41:06.937Z,29.30
2022-12-31T00:43:34.408Z,43.10
2022-12-31T00:46:01.588Z,36.30
2022-12-31T00:48:28.248Z,34.50
2022-12-31T00:50:56.107Z,30.70
2022-12-31T00:53:23.157Z,38.70
2022-12-31T00:55:49.613Z,22.40
2022-12-31T00:58:16.197Z,29.90
2022-12-31T01:00:43.425Z,33.40
2022-12-31T01:03:10.139Z,36.50
2022-12-31T01:05:37.478Z,19.30
2022-12-31T01:08:04.947Z,33.40
2022-12-31T01:10:49.576Z,33.10
2022-12-31T01:13:15.878Z,35.80
2022-12-31T01:15:42.321Z,27.50
2022-12-31T01:18:09.034Z,25.00
2022-12-31T01:20:37.436Z,29.30
2022-12-31T01:23:04.499Z,24.70
2022-12-31T01:25:30.889Z,33.40
2022-12-31T01:27:57.238Z,33.90
2022-12-31T01:30:23.474Z,31.00
2022-12-31T01:32:51.079Z,21.40
2022-12-31T01:35:18.355Z,20.80
2022-12-31T01:37:44.567Z,27.10
2022-12-31T01:40:11.016Z,32.20
2022-12-31T01:42:37.533Z,28.00
2022-12-31T01:45:10.131Z,33.20
2022-12-31T01:47:42.164Z,26.90
2022-12-31T01:50:17.561Z,27.80
2022-12-31T01:52:47.423Z,17.40
2022-12-31T01:55:16.072Z,21.00
2022-12-31T01:57:45.678Z,29.20
2022-12-31T02:00:12.641Z,30.80
2022-12-31T02:02:39.152Z,21.90
2022-12-31T02:05:16.497Z,22.00
2022-12-31T02:07:43.598Z,22.10
2022-12-31T02:10:09.853Z,22.30
2022-12-31T02:12:36.324Z,17.70
2022-12-31T02:15:03.035Z,18.10
2022-12-31T02:17:34.850Z,12.60
2022-12-31T02:20:29.226Z,21.60
2022-12-31T02:23:37.240Z,27.60
2022-12-31T02:26:25.256Z,22.30
2022-12-31T02:29:34.222Z,18.50
2022-12-31T02:32:07.216Z,16.30
2022-12-31T02:34:37.388Z,17.70
2022-12-31T02:37:10.018Z,13.60
2022-12-31T02:39:37.801Z,15.30
2022-12-31T02:42:04.180Z,15.60
2022-12-31T02:44:32.898Z,13.50
2022-12-31T02:47:08.167Z,10.50
2022-12-31T02:49:53.031Z,10.60
2022-12-31T02:52:44.169Z,14.60
2022-12-31T02:55:40.540Z,12.30
2022-12-31T02:58:21.990Z,13.40
2022-12-31T03:01:12.987Z,13.00
2022-12-31T03:03:39.897Z,13.90
2022-12-31T03:06:08.881Z,11.70
2022-12-31T03:08:55.520Z,10.30
2022-12-31T03:11:40.592Z,9.40
2022-12-31T03:14:06.813Z,10.20
2022-12-31T03:16:34.244Z,9.00
2022-12-31T03:19:19.582Z,14.30
2022-12-31T03:22:04.662Z,11.00
2022-12-31T03:24:49.392Z,11.60
2022-12-31T03:27:15.590Z,10.30
2022-12-31T03:29:42.033Z,10.40
2022-12-31T03:32:08.300Z,10.40
2022-12-31T03:34:34.584Z,10.90
2022-12-31T03:37:00.843Z,9.80
2022-12-31T03:39:27.126Z,10.20
2022-12-31T03:41:53.414Z,7.60
2022-12-31T03:44:19.795Z,8.70
2022-12-31T03:46:46.126Z,10.60
2022-12-31T03:49:12.452Z,9.60
2022-12-31T03:51:38.829Z,9.40
2022-12-31T03:54:05.123Z,10.60
2022-12-31T03:56:31.342Z,8.10
2022-12-31T03:58:57.761Z,9.10
2022-12-31T04:01:24.867Z,7.20
2022-12-31T04:03:51.337Z,8.10
2022-12-31T04:06:17.684Z,9.50
2022-12-31T04:08:43.911Z,9.40
2022-12-31T04:11:10.148Z,7.60
2022-12-31T04:13:36.361Z,10.50
2022-12-31T04:16:02.713Z,9.60
2022-12-31T04:18:29.164Z,10.10
2022-12-31T04:21:01.620Z,7.30
2022-12-31T04:23:27.988Z,12.30
2022-12-31T04:25:54.313Z,9.30
2022-12-31T04:28:20.546Z,13.50
2022-12-31T04:30:46.767Z,11.50
2022-12-31T04:33:13.047Z,10.30
2022-12-31T04:35:39.285Z,6.60
2022-12-31T04:38:05.850Z,13.20
2022-12-31T04:40:32.072Z,13.00
2022-12-31T04:42:58.348Z,9.80
2022-12-31T04:45:24.811Z,11.90
2022-12-31T04:47:51.152Z,11.20
2022-12-31T04:50:17.460Z,9.80
2022-12-31T04:52:44.130Z,10.80
2022-12-31T04:55:10.947Z,10.10
2022-12-31T04:57:37.219Z,11.00
2022-12-31T05:00:03.834Z,12.90
2022-12-31T05:02:30.300Z,11.90
2022-12-31T05:04:56.710Z,11.90
2022-12-31T05:07:23.139Z,12.90
2022-12-31T05:09:51.047Z,9.50
2022-12-31T05:12:17.315Z,10.10
2022-12-31T05:14:43.635Z,11.10
2022-12-31T05:17:09.920Z,12.20
2022-12-31T05:19:36.217Z,10.10
2022-12-31T05:22:21.023Z,11.70
2022-12-31T05:24:47.273Z,11.00
2022-12-31T05:27:14.332Z,11.10
2022-12-31T05:29:40.559Z,9.70
2022-12-31T05:32:06.877Z,13.40
2022-12-31T05:34:33.244Z,12.10
2022-12-31T05:36:59.464Z,12.00
2022-12-31T05:39:25.880Z,9.60
2022-12-31T05:41:52.201Z,8.10
2022-12-31T05:44:18.425Z,9.20
2022-12-31T05:46:46.267Z,10.10
2022-12-31T05:49:12.545Z,11.60
2022-12-31T05:51:38.882Z,9.70
2022-12-31T05:54:05.280Z,8.90
2022-12-31T05:56:31.653Z,7.20
2022-12-31T05:58:57.878Z,9.50
2022-12-31T06:01:24.147Z,11.00
2022-12-31T06:03:50.460Z,10.40
2022-12-31T06:06:16.783Z,11.20
2022-12-31T06:08:43.208Z,11.90
2022-12-31T06:11:09.518Z,11.40
2022-12-31T06:13:35.830Z,13.30
2022-12-31T06:16:08.805Z,14.40
2022-12-31T06:18:35.180Z,9.30
2022-12-31T06:21:03.416Z,10.30
2022-12-31T06:23:30.158Z,7.20
2022-12-31T06:25:56.407Z,8.40
2022-12-31T06:28:22.622Z,8.90
2022-12-31T06:30:48.905Z,9.90
2022-12-31T06:33:15.249Z,10.80
2022-12-31T06:35:41.608Z,11.30
2022-12-31T06:38:07.865Z,10.50
2022-12-31T06:40:36.901Z,8.00
2022-12-31T06:43:03.127Z,7.50
2022-12-31T06:45:29.513Z,8.80
2022-12-31T06:47:55.798Z,8.10
2022-12-31T06:50:22.043Z,7.30
2022-12-31T06:52:48.294Z,9.30
2022-12-31T06:55:15.122Z,9.00
2022-12-31T06:57:41.815Z,8.10
2022-12-31T07:00:10.413Z,11.80
2022-12-31T07:03:02.326Z,8.20
2022-12-31T07:06:13.177Z,9.90
2022-12-31T07:08:52.958Z,11.20
2022-12-31T07:11:31.559Z,9.10
2022-12-31T07:14:16.045Z,7.50
2022-12-31T07:17:22.307Z,8.80
2022-12-31T07:20:13.069Z,8.80
2022-12-31T07:22:40.484Z,11.00
2022-12-31T07:25:12.237Z,9.20
2022-12-31T07:27:53.849Z,9.30
2022-12-31T07:30:23.887Z,9.40
2022-12-31T07:33:06.695Z,9.70
2022-12-31T07:35:35.759Z,10.20
2022-12-31T07:38:27.655Z,8.80
2022-12-31T07:40:54.099Z,9.40
2022-12-31T07:43:42.128Z,8.10
2022-12-31T07:48:43.785Z,6.90
2022-12-31T07:51:11.056Z,8.40
2022-12-31T07:53:38.990Z,8.10
2022-12-31T07:56:08.042Z,7.70
2022-12-31T07:58:39.116Z,9.10
2022-12-31T08:01:12.427Z,8.00
2022-12-31T08:04:04.314Z,8.20
2022-12-31T08:06:45.476Z,8.60
2022-12-31T08:09:25.124Z,7.80
2022-12-31T08:12:00.795Z,8.50
2022-12-31T08:16:55.898Z,8.40
2022-12-31T08:19:25.921Z,8.50
2022-12-31T08:22:20.327Z,7.90
2022-12-31T08:27:52.511Z,7.70
2022-12-31T08:30:20.691Z,7.80
2022-12-31T08:33:32.328Z,7.80
2022-12-31T08:36:10.035Z,9.40
2022-12-31T08:38:57.329Z,8.30
2022-12-31T08:41:43.613Z,8.70
2022-12-31T08:44:21.872Z,6.00
2022-12-31T08:47:02.489Z,7.10
2022-12-31T08:49:31.320Z,7.50
2022-12-31T08:51:59.047Z,6.50
2022-12-31T08:54:25.816Z,4.80
2022-12-31T08:56:52.142Z,8.60
2022-12-31T08:59:28.755Z,7.20
2022-12-31T09:02:08.992Z,7.70
2022-12-31T09:05:09.096Z,6.40
2022-12-31T09:07:39.063Z,6.60
2022-12-31T09:10:17.875Z,7.30
2022-12-31T09:13:19.375Z,6.10
2022-12-31T09:16:17.864Z,5.30
2022-12-31T09:18:44.311Z,5.50
2022-12-31T09:21:13.324Z,5.90
2022-12-31T09:23:40.343Z,5.40
2022-12-31T09:26:17.688Z,6.70
2022-12-31T09:28:46.566Z,6.30
2022-12-31T09:31:17.857Z,4.90
2022-12-31T09:33:56.955Z,4.90
2022-12-31T09:36:34.803Z,4.80
2022-12-31T09:39:29.894Z,7.60
2022-12-31T09:42:15.002Z,4.80
2022-12-31T09:44:59.933Z,4.80
2022-12-31T09:47:35.061Z,4.50
2022-12-31T09:50:28.064Z,5.50
2022-12-31T09:53:18.371Z,6.10
2022-12-31T09:56:21.698Z,4.40
2022-12-31T09:59:14.355Z,4.50
2022-12-31T10:02:15.465Z,5.40
2022-12-31T10:04:53.339Z,5.50
2022-12-31T10:07:51.995Z,4.40
2022-12-31T10:10:23.698Z,5.50
2022-12-31T10:13:23.114Z,5.90
2022-12-31T10:16:28.506Z,6.10
2022-12-31T10:19:29.050Z,5.50
2022-12-31T10:22:23.301Z,4.50
2022-12-31T10:27:48.397Z,5.00
2022-12-31T10:30:17.940Z,5.50
2022-12-31T10:33:12.037Z,6.20
2022-12-31T10:36:01.971Z,5.00
2022-12-31T10:38:33.009Z,3.90
2022-12-31T10:41:30.946Z,4.70
2022-12-31T10:44:42.296Z,5.90
2022-12-31T10:47:19.094Z,4.70
2022-12-31T10:50:14.950Z,4.40
2022-12-31T10:53:07.316Z,5.70
2022-12-31T10:55:53.529Z,6.50
2022-12-31T10:58:48.018Z,5.10
2022-12-31T11:01:27.471Z,5.90
2022-12-31T11:03:53.814Z,5.60
2022-12-31T11:06:22.881Z,4.70
2022-12-31T11:09:23.363Z,5.00
2022-12-31T11:12:08.490Z,5.20
2022-12-31T11:14:42.444Z,4.40
2022-12-31T11:17:14.822Z,4.60
2022-12-31T11:19:59.685Z,4.50
2022-12-31T11:22:48.883Z,5.00
2022-12-31T11:25:22.168Z,4.60
2022-12-31T11:28:14.435Z,4.50
2022-12-31T11:31:06.027Z,4.90
2022-12-31T11:33:59.735Z,3.90
2022-12-31T11:36:38.974Z,4.80
2022-12-31T11:39:38.050Z,5.80
2022-12-31T11:42:20.656Z,4.60
2022-12-31T11:44:56.561Z,3.80
2022-12-31T11:47:28.900Z,5.80
2022-12-31T11:50:17.282Z,4.00
2022-12-31T11:53:38.044Z,4.60
2022-12-31T11:56:09.285Z,3.00
2022-12-31T11:58:35.588Z,5.50
2022-12-31T12:01:12.963Z,4.30
2022-12-31T12:03:46.739Z,3.80
2022-12-31T12:06:19.375Z,3.10
2022-12-31T12:08:46.096Z,4.10
2022-12-31T12:11:25.686Z,3.30
2022-12-31T12:13:52.222Z,4.10
2022-12-31T12:16:21.168Z,4.70
2022-12-31T12:19:00.847Z,3.90
2022-12-31T12:21:28.061Z,3.60
2022-12-31T12:24:03.943Z,4.50
2022-12-31T12:26:36.457Z,3.40
2022-12-31T12:29:20.359Z,4.50
2022-12-31T12:31:57.010Z,3.20
2022-12-31T12:34:27.728Z,3.00
2022-12-31T12:36:54.297Z,4.20
2022-12-31T12:39:23.832Z,2.70
2022-12-31T12:42:15.124Z,3.90
2022-12-31T12:44:42.010Z,3.60
2022-12-31T12:47:16.420Z,3.80
2022-12-31T12:49:48.923Z,4.20
2022-12-31T12:52:15.105Z,4.30
2022-12-31T12:54:56.594Z,3.90
2022-12-31T12:57:58.157Z,4.30
2022-12-31T13:01:04.493Z,3.80
2022-12-31T13:06:32.751Z,3.80
2022-12-31T13:09:27.148Z,4.30
2022-12-31T13:12:08.499Z,4.20
2022-12-31T13:14:45.253Z,3.80
2022-12-31T13:17:54.063Z,5.30
2022-12-31T13:21:14.326Z,3.70
2022-12-31T13:23:59.746Z,4.30
2022-12-31T13:26:49.802Z,4.20
2022-12-31T13:29:23.393Z,3.80
2022-12-31T13:31:52.180Z,5.40
2022-12-31T13:34:25.095Z,4.10
2022-12-31T13:36:53.649Z,4.40
2022-12-31T13:39:35.559Z,5.20
2022-12-31T13:42:16.176Z,3.80
2022-12-31T13:44:58.563Z,3.50
2022-12-31T13:47:27.997Z,3.70
2022-12-31T13:52:47.983Z,4.50
2022-12-31T13:55:29.148Z,4.30
2022-12-31T13:58:17.895Z,3.30
2022-12-31T14:00:50.561Z,4.30
2022-12-31T14:03:21.180Z,3.00
2022-12-31T14:08:52.912Z,5.70
2022-12-31T14:11:31.318Z,4.10
2022-12-31T14:14:23.845Z,4.80
2022-12-31T14:16:55.938Z,3.00
2022-12-31T14:19:41.047Z,3.60
2022-12-31T14:22:48.056Z,3.50
2022-12-31T14:25:34.370Z,4.30
2022-12-31T14:28:04.364Z,4.90
2022-12-31T14:30:40.124Z,4.40
2022-12-31T14:33:16.907Z,4.60
2022-12-31T14:36:24.392Z,3.30
2022-12-31T14:39:17.963Z,3.20
2022-12-31T14:42:08.049Z,3.70
2022-12-31T14:45:12.892Z,3.60
2022-12-31T14:47:53.841Z,3.40
2022-12-31T14:50:26.266Z,3.80
2022-12-31T14:53:24.776Z,4.20
2022-12-31T14:56:00.020Z,2.90
2022-12-31T14:58:34.080Z,3.30
2022-12-31T15:01:06.472Z,4.10
2022-12-31T15:03:40.107Z,3.70
2022-12-31T15:06:38.246Z,3.30
2022-12-31T15:09:24.685Z,5.10
2022-12-31T15:12:01.265Z,3.60
2022-12-31T15:14:56.892Z,4.30
2022-12-31T15:17:33.482Z,4.90
2022-12-31T15:20:17.422Z,3.40
2022-12-31T15:22:51.055Z,5.20
2022-12-31T15:25:24.389Z,4.50
2022-12-31T15:27:53.221Z,3.80
2022-12-31T15:30:32.735Z,4.80
2022-12-31T15:33:05.165Z,4.90
2022-12-31T15:35:46.252Z,3.40
2022-12-31T15:38:13.844Z,4.90
2022-12-31T15:40:50.425Z,4.50
2022-12-31T15:43:35.293Z,6.40
2022-12-31T15:46:09.775Z,4.60
2022-12-31T15:48:50.268Z,5.10
2022-12-31T15:51:29.561Z,3.20
2022-12-31T15:54:00.722Z,4.20
2022-12-31T15:56:33.863Z,4.70
2022-12-31T15:59:06.411Z,4.50
2022-12-31T16:01:36.392Z,3.70
2022-12-31T16:04:16.383Z,5.70
2022-12-31T16:06:50.718Z,5.40
2022-12-31T16:09:29.075Z,4.80
2022-12-31T16:11:59.104Z,5.00
2022-12-31T16:14:36.346Z,4.30
2022-12-31T16:17:05.032Z,3.90
2022-12-31T16:19:45.655Z,3.90
2022-12-31T16:22:17.034Z,4.90
2022-12-31T16:25:19.363Z,4.90
2022-12-31T16:27:35.289Z,4.40
2022-12-31T16:30:07.535Z,4.20
2022-12-31T16:32:39.072Z,4.10
2022-12-31T16:35:25.553Z,4.80
2022-12-31T16:38:08.264Z,3.70
2022-12-31T16:40:35.947Z,3.80
2022-12-31T16:43:04.026Z,4.00
2022-12-31T16:45:36.812Z,3.10
2022-12-31T16:48:17.657Z,3.50
2022-12-31T16:50:52.297Z,4.20
2022-12-31T16:53:24.779Z,4.60
2022-12-31T16:56:01.133Z,7.30
2022-12-31T16:58:37.193Z,5.80
2022-12-31T17:01:18.900Z,3.40
2022-12-31T17:03:53.513Z,3.50
2022-12-31T17:09:15.617Z,4.50
2022-12-31T17:12:09.942Z,4.80
2022-12-31T17:14:48.925Z,5.00
2022-12-31T17:17:25.500Z,6.00
2022-12-31T17:19:58.184Z,3.40
2022-12-31T17:22:36.439Z,5.40
2022-12-31T17:25:09.477Z,5.60
2022-12-31T17:27:37.454Z,4.50
2022-12-31T17:30:20.081Z,4.30
2022-12-31T17:32:50.890Z,3.90
2022-12-31T17:35:27.804Z,5.80
2022-12-31T17:37:55.517Z,5.20
2022-12-31T17:40:50.867Z,3.70
2022-12-31T17:43:21.677Z,4.50
2022-12-31T17:45:54.538Z,4.20
2022-12-31T17:48:24.415Z,5.10
2022-12-31T17:50:57.673Z,5.10
2022-12-31T17:53:25.902Z,6.00
2022-12-31T17:55:56.789Z,4.20
2022-12-31T17:58:42.241Z,6.80
2022-12-31T18:01:12.314Z,4.00
2022-12-31T18:03:40.061Z,5.00
2022-12-31T18:06:16.082Z,4.20
2022-12-31T18:08:44.154Z,4.70
2022-12-31T18:11:23.674Z,4.30
2022-12-31T18:13:53.093Z,7.80
2022-12-31T18:18:48.505Z,4.80
2022-12-31T18:21:29.210Z,3.80
2022-12-31T18:26:24.738Z,5.90
2022-12-31T18:28:52.893Z,4.60
2022-12-31T18:31:28.607Z,4.20
2022-12-31T18:33:58.277Z,5.50
2022-12-31T18:36:27.658Z,5.90
2022-12-31T18:38:55.488Z,4.70
2022-12-31T18:41:26.893Z,4.30
2022-12-31T18:43:55.096Z,4.40
2022-12-31T18:46:24.619Z,5.10
2022-12-31T18:48:52.506Z,4.50
2022-12-31T18:51:31.116Z,4.40
2022-12-31T18:54:04.608Z,5.10
2022-12-31T18:56:32.295Z,5.70
2022-12-31T18:59:00.208Z,4.10
2022-12-31T19:01:33.449Z,5.00
2022-12-31T19:04:04.149Z,5.80
2022-12-31T19:06:31.792Z,4.20
2022-12-31T19:09:01.197Z,5.80
2022-12-31T19:11:29.201Z,4.50
2022-12-31T19:13:56.915Z,4.80
2022-12-31T19:16:25.082Z,4.30
2022-12-31T19:18:52.865Z,4.60
2022-12-31T19:21:23.742Z,4.60
2022-12-31T19:23:51.594Z,5.70
2022-12-31T19:26:22.240Z,4.60
2022-12-31T19:28:51.140Z,5.10
2022-12-31T19:31:18.997Z,4.50
2022-12-31T19:33:47.220Z,3.80
2022-12-31T19:36:20.184Z,4.80
2022-12-31T19:38:47.858Z,4.50
2022-12-31T19:41:18.924Z,4.10
2022-12-31T19:43:47.836Z,5.40
2022-12-31T19:46:17.793Z,4.60
2022-12-31T19:48:46.340Z,4.10
2022-12-31T19:51:21.706Z,5.60
2022-12-31T19:53:49.805Z,4.00
2022-12-31T19:56:19.996Z,4.60
2022-12-31T19:58:47.628Z,5.50
2022-12-31T20:01:21.809Z,5.80
2022-12-31T20:03:50.237Z,4.10
2022-12-31T20:06:19.095Z,5.50
2022-12-31T20:08:46.753Z,5.60
2022-12-31T20:11:17.398Z,5.30
2022-12-31T20:13:46.499Z,5.10
2022-12-31T20:16:19.504Z,5.30
2022-12-31T20:18:47.839Z,5.10
2022-12-31T20:21:21.431Z,5.40
2022-12-31T20:23:50.625Z,3.20
2022-12-31T20:26:19.193Z,3.70
2022-12-31T20:28:46.867Z,4.10
2022-12-31T20:31:18.133Z,4.60
2022-12-31T20:33:45.965Z,3.60
2022-12-31T20:36:15.465Z,4.80
2022-12-31T20:38:43.990Z,4.60
2022-12-31T20:41:13.457Z,4.80
2022-12-31T20:43:41.605Z,5.70
2022-12-31T20:46:15.611Z,3.20
2022-12-31T20:48:44.950Z,4.20
2022-12-31T20:51:14.266Z,5.20
2022-12-31T20:56:17.185Z,3.50
2022-12-31T20:58:45.004Z,4.30
2022-12-31T21:01:13.807Z,4.90
2022-12-31T21:09:21.551Z,5.10
2022-12-31T21:12:08.005Z,5.20
2022-12-31T21:14:38.546Z,4.90
2022-12-31T21:17:10.514Z,3.90
2022-12-31T21:19:38.194Z,4.20
2022-12-31T21:22:05.869Z,4.50
2022-12-31T21:24:33.488Z,6.30
2022-12-31T21:27:01.153Z,5.40
2022-12-31T21:29:32.769Z,5.30
2022-12-31T21:32:02.269Z,5.20
2022-12-31T21:34:30.017Z,5.20
2022-12-31T21:36:58.059Z,4.80
2022-12-31T21:39:25.740Z,5.30
2022-12-31T21:41:53.433Z,3.40
2022-12-31T21:44:25.875Z,6.40
2022-12-31T21:47:33.175Z,5.50
2022-12-31T21:49:44.465Z,5.10
2022-12-31T21:52:27.837Z,4.00
2022-12-31T21:55:16.491Z,3.90
2022-12-31T21:58:24.346Z,5.50
2022-12-31T22:00:52.801Z,4.50
2022-12-31T22:03:29.615Z,4.90
2022-12-31T22:09:00.530Z,4.20
2022-12-31T22:11:28.530Z,4.10
2022-12-31T22:13:56.318Z,4.40
2022-12-31T22:16:24.054Z,5.30
2022-12-31T22:18:55.030Z,4.80
2022-12-31T22:21:24.490Z,5.80
2022-12-31T22:23:54.848Z,4.20
2022-12-31T22:26:26.043Z,4.10
2022-12-31T22:28:59.001Z,4.60
2022-12-31T22:31:32.752Z,4.40
2022-12-31T22:34:00.838Z,4.50
2022-12-31T22:36:28.574Z,4.70
2022-12-31T22:38:58.070Z,3.70
2022-12-31T22:41:27.159Z,4.20
2022-12-31T22:44:02.994Z,4.90
2022-12-31T22:46:33.307Z,5.40
2022-12-31T22:49:02.728Z,4.00
2022-12-31T22:54:18.933Z,5.00
2022-12-31T22:56:46.825Z,3.70
2022-12-31T22:59:14.642Z,4.60
2022-12-31T23:01:42.485Z,6.60
2022-12-31T23:04:10.237Z,6.70
2022-12-31T23:06:43.540Z,11.70
2022-12-31T23:09:31.549Z,10.70
2022-12-31T23:11:59.816Z,8.00
2022-12-31T23:14:46.153Z,8.50
2022-12-31T23:17:42.426Z,6.60
2022-12-31T23:20:39.151Z,5.60
2022-12-31T23:23:09.057Z,7.00
2022-12-31T23:25:46.058Z,6.40
2022-12-31T23:28:16.955Z,6.10
2022-12-31T23:30:44.814Z,5.90
2022-12-31T23:33:16.017Z,4.30
2022-12-31T23:35:44.205Z,5.10
2022-12-31T23:38:12.585Z,4.90
2022-12-31T23:40:40.183Z,4.50
2022-12-31T23:43:21.107Z,5.80
2022-12-31T23:45:52.661Z,5.10
2022-12-31T23:48:20.703Z,3.90
2022-12-31T23:50:53.404Z,5.20
2022-12-31T23:53:24.752Z,5.20
2022-12-31T23:55:53.331Z,5.10
2022-12-31T23:58:21.782Z,6.00
